Time;durP1;ratioP1;P1;durP2;ratioP2;P2;SDS_P1;SDS_P2;PMS_P1;PMS_P2;Temp;Humidity;BMP_temperature;BMP_pressure;BME280_temperature;BME280_humidity;BME280_pressure;Samples;Min_cycle;Max_cycle;Signal;HPM_P1;HPM_P2
2022/07/04 00:03:47;;;;;;;5.37;4.77;;;;;;;;;;10272781;28;20421;-83
2022/07/04 00:08:49;;;;;;;5.00;4.50;;;;;;;;;;10277393;28;20469;-83
2022/07/04 00:13:52;;;;;;;5.60;4.75;;;;;;;;;;10272691;28;20441;-83
2022/07/04 00:18:54;;;;;;;8.27;5.78;;;;;;;;;;10273271;28;20434;-84
2022/07/04 00:23:56;;;;;;;6.83;5.40;;;;;;;;;;10268988;28;20499;-84
2022/07/04 00:29:00;;;;;;;6.60;5.25;;;;;;;;;;10269519;28;20926;-83
2022/07/04 00:34:02;;;;;;;5.70;4.70;;;;;;;;;;10255376;28;20956;-83
2022/07/04 00:39:04;;;;;;;5.28;4.78;;;;;;;;;;10264152;28;20878;-83
2022/07/04 00:44:09;;;;;;;5.63;4.80;;;;;;;;;;10271665;28;20917;-82
2022/07/04 00:49:13;;;;;;;7.50;6.45;;;;;;;;;;10270986;28;20498;-83
2022/07/04 00:54:17;;;;;;;8.18;6.43;;;;;;;;;;10273592;28;20575;-84
2022/07/04 00:59:20;;;;;;;7.83;6.53;;;;;;;;;;10272125;28;20523;-83
2022/07/04 01:04:22;;;;;;;7.97;7.18;;;;;;;;;;10268605;28;20938;-82
2022/07/04 01:09:24;;;;;;;10.13;6.90;;;;;;;;;;10265173;28;20420;-83
2022/07/04 01:14:27;;;;;;;7.32;6.28;;;;;;;;;;10254557;28;20496;-84
2022/07/04 01:19:29;;;;;;;8.63;6.30;;;;;;;;;;10261472;28;20430;-83
2022/07/04 01:24:32;;;;;;;8.43;6.00;;;;;;;;;;10262878;28;20510;-83
2022/07/04 01:29:34;;;;;;;7.10;5.80;;;;;;;;;;10254596;28;20499;-84
2022/07/04 01:34:36;;;;;;;6.82;5.82;;;;;;;;;;10261266;28;20823;-84
2022/07/04 01:39:39;;;;;;;6.47;5.57;;;;;;;;;;10258273;28;20439;-83
2022/07/04 01:44:41;;;;;;;6.70;5.05;;;;;;;;;;10267796;28;20763;-84
2022/07/04 01:49:43;;;;;;;5.53;5.00;;;;;;;;;;10271996;28;20430;-83
2022/07/04 01:54:46;;;;;;;5.20;4.60;;;;;;;;;;10262087;28;20501;-83
2022/07/04 02:05:07;;;;;;;5.03;3.78;;;;;;;;;;10229947;28;20501;-83
2022/07/04 02:10:11;;;;;;;5.07;3.77;;;;;;;;;;10279452;28;20494;-83
2022/07/04 02:15:13;;;;;;;3.85;3.55;;;;;;;;;;10265553;28;20504;-83
2022/07/04 02:20:15;;;;;;;4.45;3.67;;;;;;;;;;10278464;28;21323;-83
2022/07/04 02:25:19;;;;;;;5.45;3.35;;;;;;;;;;10279435;28;20881;-84
2022/07/04 02:30:21;;;;;;;6.53;3.67;;;;;;;;;;10262794;28;20449;-82
2022/07/04 02:35:23;;;;;;;5.72;3.53;;;;;;;;;;10260529;23;20427;-83
2022/07/04 02:40:26;;;;;;;5.65;3.78;;;;;;;;;;10229081;29;20519;-83
2022/07/04 02:45:28;;;;;;;5.03;3.75;;;;;;;;;;10239949;28;20507;-84
2022/07/04 02:50:30;;;;;;;4.37;3.77;;;;;;;;;;10238070;29;20427;-83
2022/07/04 02:55:33;;;;;;;5.78;3.63;;;;;;;;;;10239108;29;20511;-84
2022/07/04 03:00:35;;;;;;;4.93;3.37;;;;;;;;;;10225606;29;20566;-85
2022/07/04 03:05:37;;;;;;;4.35;3.40;;;;;;;;;;10238539;29;20624;-85
2022/07/04 03:10:40;;;;;;;5.20;3.60;;;;;;;;;;10240118;29;20496;-84
2022/07/04 03:15:42;;;;;;;6.75;3.50;;;;;;;;;;10238764;29;20412;-85
2022/07/04 03:20:45;;;;;;;4.88;3.47;;;;;;;;;;10237447;29;20424;-85
2022/07/04 03:25:48;;;;;;;5.60;3.30;;;;;;;;;;10238680;29;20499;-85
2022/07/04 03:30:50;;;;;;;4.47;3.30;;;;;;;;;;10238551;29;20420;-84
2022/07/04 03:35:51;;;;;;;5.10;3.42;;;;;;;;;;10237918;29;20816;-86
2022/07/04 03:40:55;;;;;;;3.65;3.30;;;;;;;;;;10238486;29;20420;-85
2022/07/04 03:45:56;;;;;;;5.18;3.30;;;;;;;;;;10230782;28;20772;-85
2022/07/04 03:50:58;;;;;;;3.83;3.53;;;;;;;;;;10235908;29;20414;-85
2022/07/04 03:56:01;;;;;;;5.15;3.30;;;;;;;;;;10240902;29;20969;-86
2022/07/04 04:01:04;;;;;;;4.00;3.60;;;;;;;;;;10244882;29;20431;-85
2022/07/04 04:06:05;;;;;;;7.97;4.38;;;;;;;;;;10233449;29;20438;-85
2022/07/04 04:11:09;;;;;;;5.97;4.00;;;;;;;;;;10231004;29;20500;-85
2022/07/04 04:16:11;;;;;;;5.03;3.67;;;;;;;;;;10229906;29;20863;-85
2022/07/04 04:21:12;;;;;;;4.73;3.70;;;;;;;;;;10225635;29;20436;-85
2022/07/04 04:26:16;;;;;;;7.28;4.47;;;;;;;;;;10232792;29;20492;-85
2022/07/04 04:31:18;;;;;;;5.27;4.20;;;;;;;;;;10224466;29;20449;-85
2022/07/04 04:36:19;;;;;;;5.90;4.50;;;;;;;;;;10227458;29;20429;-85
2022/07/04 04:41:23;;;;;;;6.55;4.65;;;;;;;;;;10221617;29;20867;-85
2022/07/04 04:46:24;;;;;;;5.73;4.40;;;;;;;;;;10224809;29;20404;-84
2022/07/04 04:51:26;;;;;;;8.20;4.38;;;;;;;;;;10222848;29;20500;-85
2022/07/04 04:56:29;;;;;;;7.07;4.63;;;;;;;;;;10225948;29;20414;-85
2022/07/04 05:01:31;;;;;;;9.00;4.40;;;;;;;;;;10222312;29;20926;-86
2022/07/04 05:06:33;;;;;;;6.00;4.20;;;;;;;;;;10225956;29;20438;-85
2022/07/04 05:11:36;;;;;;;4.90;3.80;;;;;;;;;;10231326;29;20494;-85
2022/07/04 05:16:38;;;;;;;4.50;4.10;;;;;;;;;;10229086;29;20411;-85
2022/07/04 05:21:40;;;;;;;6.05;4.40;;;;;;;;;;10232993;29;20432;-84
2022/07/04 05:26:44;;;;;;;5.07;3.70;;;;;;;;;;10229535;29;21065;-85
2022/07/04 05:31:45;;;;;;;5.45;3.63;;;;;;;;;;10228080;29;20491;-85
2022/07/04 05:36:47;;;;;;;4.67;3.63;;;;;;;;;;10234785;29;20420;-85
2022/07/04 05:41:51;;;;;;;4.20;3.80;;;;;;;;;;10222446;29;20530;-85
2022/07/04 05:46:52;;;;;;;5.53;3.60;;;;;;;;;;10226257;29;20508;-85
2022/07/04 05:51:54;;;;;;;5.05;3.85;;;;;;;;;;10226636;29;20503;-86
2022/07/04 05:56:57;;;;;;;3.97;3.42;;;;;;;;;;10230358;29;20493;-86
2022/07/04 06:01:59;;;;;;;5.10;3.72;;;;;;;;;;10222113;29;20434;-84
2022/07/04 06:07:01;;;;;;;6.87;4.27;;;;;;;;;;10219643;28;20432;-87
2022/07/04 06:12:05;;;;;;;7.22;4.18;;;;;;;;;;10231397;28;20412;-85
2022/07/04 06:17:07;;;;;;;7.13;3.83;;;;;;;;;;10228698;29;20452;-85
2022/07/04 06:22:08;;;;;;;9.20;4.13;;;;;;;;;;10229988;28;20424;-86
2022/07/04 06:27:12;;;;;;;7.55;3.97;;;;;;;;;;10229038;28;20956;-85
2022/07/04 06:32:14;;;;;;;6.70;4.30;;;;;;;;;;10225300;29;20493;-86
2022/07/04 06:37:16;;;;;;;6.88;4.00;;;;;;;;;;10235161;29;20507;-86
2022/07/04 06:42:19;;;;;;;4.93;3.78;;;;;;;;;;10231174;28;20434;-85
2022/07/04 06:47:21;;;;;;;9.35;4.20;;;;;;;;;;10220805;28;20505;-86
2022/07/04 06:52:22;;;;;;;7.17;4.00;;;;;;;;;;10228548;28;20432;-85
2022/07/04 06:57:26;;;;;;;4.57;3.67;;;;;;;;;;10228026;28;20422;-85
2022/07/04 07:02:28;;;;;;;5.38;3.65;;;;;;;;;;10233253;28;20504;-85
2022/07/04 07:07:30;;;;;;;7.85;4.18;;;;;;;;;;10230649;28;20515;-86
2022/07/04 07:12:39;;;;;;;7.57;4.47;;;;;;;;;;10232870;28;20507;-84
2022/07/04 07:17:41;;;;;;;5.88;4.00;;;;;;;;;;10235198;28;21242;-84
2022/07/04 07:22:43;;;;;;;6.97;3.78;;;;;;;;;;10240283;28;20483;-85
2022/07/04 07:27:46;;;;;;;4.47;3.63;;;;;;;;;;10238720;28;20431;-86
2022/07/04 07:32:49;;;;;;;4.38;3.72;;;;;;;;;;10243529;28;20889;-85
2022/07/04 07:37:52;;;;;;;4.00;3.60;;;;;;;;;;10236253;28;20685;-84
2022/07/04 07:42:56;;;;;;;3.33;2.83;;;;;;;;;;10238204;28;20931;-86
2022/07/04 07:47:58;;;;;;;3.47;3.17;;;;;;;;;;10239463;28;20494;-89
2022/07/04 07:53:00;;;;;;;5.03;3.00;;;;;;;;;;10237534;28;20420;-86
2022/07/04 07:58:03;;;;;;;3.97;2.90;;;;;;;;;;10242459;28;20464;-87
2022/07/04 08:08:24;;;;;;;4.25;3.28;;;;;;;;;;10234792;28;20418;-86
2022/07/04 08:13:27;;;;;;;5.68;3.10;;;;;;;;;;10245364;29;20456;-87
2022/07/04 08:18:29;;;;;;;4.65;3.30;;;;;;;;;;10244062;29;20424;-88
2022/07/04 08:23:32;;;;;;;4.00;3.28;;;;;;;;;;10262462;29;20447;-89
2022/07/04 08:28:36;;;;;;;5.80;3.40;;;;;;;;;;10246082;28;20412;-88
2022/07/04 08:33:38;;;;;;;4.85;3.55;;;;;;;;;;10232431;29;20483;-89
2022/07/04 08:38:39;;;;;;;4.55;3.30;;;;;;;;;;10228825;29;20888;-91
2022/07/04 08:43:43;;;;;;;5.93;3.63;;;;;;;;;;10230913;29;20772;-91
2022/07/04 08:48:53;;;;;;;5.30;3.70;;;;;;;;;;10235322;29;20430;-90
2022/07/04 08:53:58;;;;;;;4.40;3.20;;;;;;;;;;10232688;29;20416;-90
2022/07/04 08:59:02;;;;;;;6.27;3.43;;;;;;;;;;10239538;29;20440;-91
2022/07/04 09:04:05;;;;;;;4.53;3.40;;;;;;;;;;10222287;29;20407;-91
2022/07/04 09:09:09;;;;;;;6.40;3.28;;;;;;;;;;10234000;29;20478;-91
2022/07/04 09:14:12;;;;;;;5.80;3.50;;;;;;;;;;10230319;29;20417;-89
2022/07/04 09:19:20;;;;;;;3.80;3.00;;;;;;;;;;10234061;29;20428;-89
2022/07/04 09:24:46;;;;;;;4.57;3.17;;;;;;;;;;10224805;29;20410;-89
2022/07/04 09:29:54;;;;;;;5.47;3.40;;;;;;;;;;10233102;29;20412;-89
2022/07/04 09:34:56;;;;;;;3.33;3.03;;;;;;;;;;10227201;29;20428;-91
2022/07/04 09:39:58;;;;;;;5.13;3.28;;;;;;;;;;10231251;28;20886;-89
2022/07/04 09:45:05;;;;;;;3.70;3.07;;;;;;;;;;10220969;29;20889;-90
2022/07/04 09:50:10;;;;;;;4.95;2.90;;;;;;;;;;10232500;29;20423;-88
2022/07/04 09:55:12;;;;;;;3.10;2.67;;;;;;;;;;10226784;29;21044;-88
2022/07/04 10:00:20;;;;;;;2.55;2.35;;;;;;;;;;10221536;28;20432;-86
2022/07/04 10:05:29;;;;;;;2.70;2.50;;;;;;;;;;10224511;28;20510;-86
2022/07/04 10:10:34;;;;;;;5.40;2.30;;;;;;;;;;10234913;28;20415;-87
2022/07/04 10:15:38;;;;;;;3.30;2.40;;;;;;;;;;10225957;28;20457;-86
2022/07/04 10:20:40;;;;;;;5.37;2.67;;;;;;;;;;10226644;29;20443;-85
2022/07/04 10:25:42;;;;;;;3.08;2.30;;;;;;;;;;10238187;28;21069;-86
2022/07/04 10:30:51;;;;;;;3.75;2.30;;;;;;;;;;10227016;28;20496;-85
2022/07/04 10:35:54;;;;;;;6.10;2.20;;;;;;;;;;10235180;28;20424;-86
2022/07/04 10:40:59;;;;;;;2.50;2.30;;;;;;;;;;10236032;29;20436;-86
2022/07/04 10:46:30;;;;;;;2.33;2.13;;;;;;;;;;10234013;29;20901;-86
2022/07/04 10:51:38;;;;;;;2.50;2.30;;;;;;;;;;10235758;28;20419;-87
2022/07/04 10:56:46;;;;;;;3.03;2.38;;;;;;;;;;10242142;29;20893;-86
2022/07/04 11:01:54;;;;;;;6.40;2.50;;;;;;;;;;10246389;29;20518;-85
2022/07/04 11:06:56;;;;;;;4.10;2.40;;;;;;;;;;10241362;29;20434;-88
2022/07/04 11:11:59;;;;;;;3.90;2.50;;;;;;;;;;10244242;29;20503;-88
2022/07/04 11:17:03;;;;;;;3.20;2.42;;;;;;;;;;10241862;29;20908;-87
2022/07/04 11:22:06;;;;;;;3.10;2.80;;;;;;;;;;10243373;29;20913;-85
2022/07/04 11:27:10;;;;;;;4.00;2.80;;;;;;;;;;10244951;29;20513;-84
2022/07/04 11:32:13;;;;;;;5.25;2.85;;;;;;;;;;10242161;29;20793;-85
2022/07/04 11:37:15;;;;;;;4.10;3.10;;;;;;;;;;10238330;29;20779;-85
2022/07/04 11:47:39;;;;;;;4.20;3.47;;;;;;;;;;10234645;29;20404;-84
2022/07/04 11:52:42;;;;;;;4.38;3.67;;;;;;;;;;10235235;29;20417;-87
2022/07/04 11:57:45;;;;;;;6.60;3.60;;;;;;;;;;10232673;29;20932;-87
2022/07/04 12:02:50;;;;;;;4.03;3.40;;;;;;;;;;10230955;28;20527;-84
2022/07/04 12:07:52;;;;;;;5.03;3.33;;;;;;;;;;10231301;29;20428;-88
2022/07/04 12:12:56;;;;;;;5.20;3.30;;;;;;;;;;10230704;29;20422;-88
2022/07/04 12:18:00;;;;;;;7.07;3.38;;;;;;;;;;10237406;29;20900;-89
2022/07/04 12:23:03;;;;;;;4.82;3.03;;;;;;;;;;10233332;29;20426;-85
2022/07/04 12:28:07;;;;;;;5.43;2.63;;;;;;;;;;10237763;29;20491;-86
2022/07/04 12:33:10;;;;;;;3.87;2.60;;;;;;;;;;10237002;29;20416;-85
2022/07/04 12:38:14;;;;;;;8.27;2.53;;;;;;;;;;10235288;29;20420;-85
2022/07/04 12:43:16;;;;;;;5.07;2.50;;;;;;;;;;10236457;29;20546;-85
2022/07/04 12:48:21;;;;;;;13.57;2.50;;;;;;;;;;10235758;29;20519;-85
2022/07/04 12:53:23;;;;;;;5.85;2.00;;;;;;;;;;10226538;29;20424;-85
2022/07/04 12:58:31;;;;;;;4.07;1.80;;;;;;;;;;10234518;29;20416;-85
2022/07/04 13:03:34;;;;;;;3.17;1.60;;;;;;;;;;10234911;29;20424;-85
2022/07/04 13:08:36;;;;;;;3.25;1.50;;;;;;;;;;10235133;29;20801;-85
2022/07/04 13:13:37;;;;;;;2.60;1.30;;;;;;;;;;10228755;29;20427;-84
2022/07/04 13:18:43;;;;;;;14.00;2.28;;;;;;;;;;10234417;29;20430;-85
2022/07/04 13:23:45;;;;;;;2.55;1.27;;;;;;;;;;10237419;29;20420;-85
2022/07/04 13:28:47;;;;;;;3.60;1.35;;;;;;;;;;10237011;29;20423;-84
2022/07/04 13:33:50;;;;;;;1.70;1.40;;;;;;;;;;10236089;29;20836;-86
2022/07/04 13:38:52;;;;;;;2.90;1.52;;;;;;;;;;10237864;29;20495;-87
2022/07/04 13:43:56;;;;;;;1.87;1.30;;;;;;;;;;10238494;29;20977;-86
2022/07/04 13:48:59;;;;;;;3.90;1.30;;;;;;;;;;10223631;29;21013;-85
2022/07/04 13:54:03;;;;;;;3.20;1.40;;;;;;;;;;10233526;29;20439;-85
2022/07/04 13:59:05;;;;;;;3.20;1.30;;;;;;;;;;10233640;28;20424;-86
2022/07/04 14:04:08;;;;;;;7.22;2.00;;;;;;;;;;10231871;28;20418;-86
2022/07/04 14:09:10;;;;;;;2.37;1.40;;;;;;;;;;10236421;28;20438;-85
2022/07/04 14:14:12;;;;;;;7.00;1.58;;;;;;;;;;10233606;28;20438;-86
2022/07/04 14:19:16;;;;;;;2.40;1.20;;;;;;;;;;10231606;28;20431;-85
2022/07/04 14:24:18;;;;;;;2.70;1.27;;;;;;;;;;10232333;28;20424;-86
2022/07/04 14:29:19;;;;;;;2.78;1.27;;;;;;;;;;10233907;28;20901;-87
2022/07/04 14:34:26;;;;;;;2.50;1.20;;;;;;;;;;10232351;28;20489;-87
2022/07/04 14:39:28;;;;;;;1.55;1.15;;;;;;;;;;10241288;23;20428;-85
2022/07/04 14:44:30;;;;;;;2.83;1.10;;;;;;;;;;10225459;28;20625;-85
2022/07/04 14:49:34;;;;;;;2.40;1.30;;;;;;;;;;10230434;28;20439;-84
2022/07/04 14:54:36;;;;;;;2.13;1.30;;;;;;;;;;10229905;28;20420;-84
2022/07/04 14:59:38;;;;;;;14.07;2.30;;;;;;;;;;10227927;28;20519;-85
2022/07/04 15:04:41;;;;;;;3.22;1.23;;;;;;;;;;10226977;28;20428;-85
2022/07/04 15:09:43;;;;;;;1.60;1.33;;;;;;;;;;10231665;29;20452;-85
2022/07/04 15:14:45;;;;;;;2.40;1.15;;;;;;;;;;10228958;29;20426;-84
2022/07/04 15:25:07;;;;;;;2.55;1.40;;;;;;;;;;10226634;29;20413;-82
2022/07/04 15:30:10;;;;;;;2.10;1.30;;;;;;;;;;10221233;29;20426;-82
2022/07/04 15:35:13;;;;;;;2.30;1.30;;;;;;;;;;10216797;29;20429;-87
2022/07/04 15:40:15;;;;;;;2.55;1.52;;;;;;;;;;10219622;28;20961;-85
2022/07/04 15:45:17;;;;;;;3.85;1.85;;;;;;;;;;10230285;28;20423;-83
2022/07/04 15:50:21;;;;;;;2.15;1.30;;;;;;;;;;10225461;28;20439;-84
2022/07/04 15:55:23;;;;;;;3.20;1.40;;;;;;;;;;10232625;28;20432;-84
2022/07/04 16:00:25;;;;;;;2.83;1.50;;;;;;;;;;10237382;28;20434;-85
2022/07/04 16:05:29;;;;;;;2.58;1.38;;;;;;;;;;10234035;28;20424;-84
2022/07/04 16:10:31;;;;;;;1.95;1.20;;;;;;;;;;10231917;28;20507;-85
2022/07/04 16:15:33;;;;;;;3.05;1.40;;;;;;;;;;10233991;28;20450;-84
2022/07/04 16:20:36;;;;;;;2.35;1.40;;;;;;;;;;10235261;28;20514;-84
2022/07/04 16:25:38;;;;;;;1.60;1.20;;;;;;;;;;10234974;28;20424;-83
2022/07/04 16:30:40;;;;;;;1.50;1.40;;;;;;;;;;10236078;28;20444;-84
2022/07/04 16:35:43;;;;;;;2.20;1.60;;;;;;;;;;10233030;28;20412;-84
2022/07/04 16:40:45;;;;;;;3.67;1.57;;;;;;;;;;10239292;29;20482;-83
2022/07/04 16:45:47;;;;;;;2.97;1.50;;;;;;;;;;10238006;29;20770;-84
2022/07/04 16:50:50;;;;;;;1.50;1.40;;;;;;;;;;10234664;28;20432;-85
2022/07/04 16:55:52;;;;;;;4.00;1.60;;;;;;;;;;10236665;29;20428;-85
2022/07/04 17:00:54;;;;;;;2.30;1.17;;;;;;;;;;10238429;29;20499;-83
2022/07/04 17:05:57;;;;;;;3.03;1.55;;;;;;;;;;10234249;29;20531;-81
2022/07/04 17:10:59;;;;;;;3.80;1.50;;;;;;;;;;10234766;29;20491;-84
2022/07/04 17:16:01;;;;;;;5.80;1.70;;;;;;;;;;10235859;29;20430;-83
2022/07/04 17:21:04;;;;;;;2.67;1.50;;;;;;;;;;10231667;29;21264;-85
2022/07/04 17:26:06;;;;;;;2.80;1.47;;;;;;;;;;10230149;29;20431;-85
2022/07/04 17:31:08;;;;;;;2.83;1.20;;;;;;;;;;10236957;29;20434;-84
2022/07/04 17:36:11;;;;;;;3.75;1.30;;;;;;;;;;10237432;29;20428;-84
2022/07/04 17:46:32;;;;;;;2.38;1.27;;;;;;;;;;10229619;28;20786;-84
2022/07/04 17:51:36;;;;;;;3.40;1.40;;;;;;;;;;10231498;28;20522;-84
2022/07/04 17:56:38;;;;;;;2.70;1.30;;;;;;;;;;10231834;28;20446;-84
2022/07/04 18:01:40;;;;;;;2.28;1.20;;;;;;;;;;10227504;28;20438;-84
2022/07/04 18:06:44;;;;;;;4.22;1.23;;;;;;;;;;10230369;28;20471;-83
2022/07/04 18:11:45;;;;;;;2.37;1.00;;;;;;;;;;10231238;28;20424;-81
2022/07/04 18:16:47;;;;;;;3.47;1.20;;;;;;;;;;10233076;28;20420;-79
2022/07/04 18:21:50;;;;;;;4.07;1.25;;;;;;;;;;10232077;28;20522;-82
2022/07/04 18:26:52;;;;;;;2.70;1.52;;;;;;;;;;10228441;28;20430;-81
2022/07/04 18:31:56;;;;;;;2.17;1.80;;;;;;;;;;10231402;29;20435;-81
2022/07/04 18:36:59;;;;;;;2.77;1.37;;;;;;;;;;10226829;29;20418;-81
2022/07/04 18:47:21;;;;;;;30.80;3.65;;;;;;;;;;10230114;29;20873;-82
2022/07/04 18:52:25;;;;;;;25.33;3.47;;;;;;;;;;10230076;28;20486;-81
2022/07/04 18:57:27;;;;;;;22.83;2.83;;;;;;;;;;10234419;28;20833;-80
2022/07/04 19:02:29;;;;;;;17.63;2.97;;;;;;;;;;10233939;29;20424;-82
2022/07/04 19:07:33;;;;;;;20.23;2.45;;;;;;;;;;10231130;29;20432;-80
2022/07/04 19:12:36;;;;;;;16.88;2.30;;;;;;;;;;10232758;28;20975;-81
2022/07/04 19:17:38;;;;;;;12.13;1.95;;;;;;;;;;10240637;29;20430;-82
2022/07/04 19:22:42;;;;;;;12.55;2.30;;;;;;;;;;10238143;29;20801;-82
2022/07/04 19:27:44;;;;;;;6.57;1.40;;;;;;;;;;10235111;29;20439;-81
2022/07/04 19:32:48;;;;;;;7.53;1.20;;;;;;;;;;10235466;28;20448;-82
2022/07/04 19:37:51;;;;;;;5.45;1.10;;;;;;;;;;10235728;28;20424;-83
2022/07/04 19:42:53;;;;;;;8.60;1.30;;;;;;;;;;10236578;28;20557;-82
2022/07/04 19:47:55;;;;;;;7.43;1.33;;;;;;;;;;10234117;28;20430;-82
2022/07/04 19:53:01;;;;;;;3.43;0.87;;;;;;;;;;10234653;28;20425;-80
2022/07/04 19:58:02;;;;;;;3.58;0.80;;;;;;;;;;10237724;28;20420;-81
2022/07/04 20:03:08;;;;;;;5.13;0.93;;;;;;;;;;10236369;28;20523;-80
2022/07/04 20:08:13;;;;;;;3.40;1.00;;;;;;;;;;10236639;28;20428;-82
2022/07/04 20:13:15;;;;;;;4.47;1.10;;;;;;;;;;10233722;28;20424;-82
2022/07/04 20:18:17;;;;;;;5.97;1.10;;;;;;;;;;10229657;28;20515;-80
2022/07/04 20:23:20;;;;;;;4.18;1.00;;;;;;;;;;10230480;29;20444;-81
2022/07/04 20:28:22;;;;;;;5.03;1.10;;;;;;;;;;10237063;28;20416;-81
2022/07/04 20:33:24;;;;;;;3.63;0.95;;;;;;;;;;10236264;29;20427;-81
2022/07/04 20:38:29;;;;;;;3.88;1.25;;;;;;;;;;10235218;29;20428;-81
2022/07/04 20:43:31;;;;;;;3.47;1.10;;;;;;;;;;10235594;29;20499;-81
2022/07/04 20:48:33;;;;;;;5.20;1.57;;;;;;;;;;10236237;29;20404;-82
2022/07/04 20:53:36;;;;;;;5.87;1.93;;;;;;;;;;10233177;29;20793;-82
2022/07/04 20:58:38;;;;;;;4.32;2.00;;;;;;;;;;10227844;29;21280;-80
2022/07/04 21:03:41;;;;;;;6.18;2.05;;;;;;;;;;10228476;29;20937;-81
2022/07/04 21:08:44;;;;;;;2.55;1.90;;;;;;;;;;10216803;29;20931;-78
2022/07/04 21:13:45;;;;;;;4.97;2.10;;;;;;;;;;10228673;29;20404;-82
2022/07/04 21:18:47;;;;;;;6.18;2.45;;;;;;;;;;10228114;29;20446;-81
2022/07/04 21:23:51;;;;;;;6.00;2.20;;;;;;;;;;10226542;29;20511;-82
2022/07/04 21:28:52;;;;;;;6.68;2.17;;;;;;;;;;10224310;29;20527;-81
2022/07/04 21:33:54;;;;;;;6.15;2.40;;;;;;;;;;10223428;29;20472;-82
2022/07/04 21:38:57;;;;;;;4.53;2.50;;;;;;;;;;10221558;28;20424;-80
2022/07/04 21:43:59;;;;;;;3.05;2.10;;;;;;;;;;10219395;29;20599;-82
2022/07/04 21:49:01;;;;;;;3.90;2.45;;;;;;;;;;10213314;29;20512;-80
2022/07/04 21:54:04;;;;;;;3.67;2.20;;;;;;;;;;10214824;29;20450;-81
2022/07/04 21:59:06;;;;;;;3.65;2.22;;;;;;;;;;10229070;29;20407;-81
2022/07/04 22:04:08;;;;;;;2.40;2.20;;;;;;;;;;10229726;29;20436;-82
2022/07/04 22:09:11;;;;;;;5.73;2.20;;;;;;;;;;10227192;29;20498;-82
2022/07/04 22:14:13;;;;;;;4.20;2.00;;;;;;;;;;10224817;29;20438;-82
2022/07/04 22:19:15;;;;;;;4.10;1.70;;;;;;;;;;10220207;29;20999;-82
2022/07/04 22:24:18;;;;;;;3.70;1.70;;;;;;;;;;10221100;29;20866;-83
2022/07/04 22:29:20;;;;;;;3.77;1.90;;;;;;;;;;10224763;29;20496;-82
2022/07/04 22:34:22;;;;;;;2.40;1.77;;;;;;;;;;10228437;29;20459;-82
2022/07/04 22:39:25;;;;;;;2.53;1.63;;;;;;;;;;10227858;29;20510;-83
2022/07/04 22:44:27;;;;;;;2.40;1.73;;;;;;;;;;10229510;29;21274;-83
2022/07/04 22:49:29;;;;;;;4.32;1.88;;;;;;;;;;10225349;28;20448;-80
2022/07/04 22:59:52;;;;;;;4.60;2.60;;;;;;;;;;10217817;29;20418;-82
2022/07/04 23:04:55;;;;;;;4.75;2.60;;;;;;;;;;10218476;29;20546;-83
2022/07/04 23:09:58;;;;;;;4.90;2.78;;;;;;;;;;10214355;29;20402;-82
2022/07/04 23:15:00;;;;;;;6.53;2.65;;;;;;;;;;10223782;29;20510;-83
2022/07/04 23:20:02;;;;;;;3.92;2.58;;;;;;;;;;10226427;28;20416;-82
2022/07/04 23:25:05;;;;;;;6.28;2.67;;;;;;;;;;10214201;29;20813;-81
2022/07/04 23:30:08;;;;;;;4.90;2.53;;;;;;;;;;10207897;29;20452;-81
2022/07/04 23:35:10;;;;;;;4.70;2.80;;;;;;;;;;10214754;29;20503;-82
2022/07/04 23:40:13;;;;;;;4.70;3.10;;;;;;;;;;10226863;29;21007;-82
2022/07/04 23:45:15;;;;;;;8.32;3.63;;;;;;;;;;10235062;29;20428;-81
2022/07/04 23:50:17;;;;;;;5.50;3.28;;;;;;;;;;10226251;29;20420;-81
2022/07/04 23:55:20;;;;;;;6.72;3.22;;;;;;;;;;10228108;29;20418;-81
